createdAt,value
2018-03-23T00:00:43.408Z,91.96
2018-03-23T00:03:11.032Z,91.84
2018-03-23T00:05:38.608Z,92.46
2018-03-23T00:08:06.201Z,92.89
2018-03-23T00:10:33.834Z,92.59
2018-03-23T00:13:01.431Z,91.78
2018-03-23T00:15:29.023Z,91.39
2018-03-23T00:17:56.663Z,90.56
2018-03-23T00:20:24.247Z,90.99
2018-03-23T00:22:51.838Z,90.75
2018-03-23T00:25:19.465Z,91.17
2018-03-23T00:27:47.053Z,91.74
2018-03-23T00:30:14.642Z,91.60
2018-03-23T00:32:42.261Z,91.67
2018-03-23T00:35:09.851Z,91.60
2018-03-23T00:37:37.448Z,91.71
2018-03-23T00:40:05.084Z,92.05
2018-03-23T00:42:32.684Z,92.08
2018-03-23T00:45:00.274Z,92.46
2018-03-23T00:47:27.905Z,92.85
2018-03-23T00:49:55.482Z,92.37
2018-03-23T00:52:23.069Z,92.13
2018-03-23T00:54:50.702Z,92.42
2018-03-23T00:57:18.330Z,92.47
2018-03-23T00:59:45.910Z,91.95
2018-03-23T01:02:13.542Z,91.78
2018-03-23T01:04:41.126Z,91.51
2018-03-23T01:07:08.719Z,91.41
2018-03-23T01:09:36.384Z,91.56
2018-03-23T01:12:03.967Z,91.76
2018-03-23T01:14:31.559Z,91.46
2018-03-23T01:16:59.223Z,91.29
2018-03-23T01:19:26.822Z,91.24
2018-03-23T01:21:54.407Z,91.29
2018-03-23T01:24:22.028Z,91.23
2018-03-23T01:26:49.616Z,91.31
2018-03-23T01:29:17.211Z,91.30
2018-03-23T01:31:44.835Z,91.47
2018-03-23T01:34:12.419Z,91.93
2018-03-23T01:36:40.010Z,92.58
2018-03-23T01:39:07.644Z,92.55
2018-03-23T01:41:35.235Z,92.99
2018-03-23T01:44:02.849Z,93.13
2018-03-23T01:46:30.469Z,93.99
2018-03-23T01:48:58.053Z,94.21
2018-03-23T01:51:25.649Z,94.29
2018-03-23T01:53:53.269Z,94.72
2018-03-23T01:56:20.857Z,94.93
2018-03-23T01:58:48.458Z,94.97
2018-03-23T02:01:16.089Z,95.31
2018-03-23T02:03:43.684Z,95.30
2018-03-23T02:06:11.271Z,95.23
2018-03-23T02:08:38.890Z,94.72
2018-03-23T02:11:06.473Z,94.04
2018-03-23T02:13:34.057Z,93.89
2018-03-23T02:16:01.672Z,94.14
2018-03-23T02:18:29.266Z,94.17
2018-03-23T02:20:56.856Z,93.87
2018-03-23T02:23:24.486Z,93.74
2018-03-23T02:25:52.068Z,93.44
2018-03-23T02:28:19.659Z,93.65
2018-03-23T02:30:47.300Z,93.76
2018-03-23T02:33:14.886Z,93.88
2018-03-23T02:35:42.481Z,94.50
2018-03-23T02:38:10.099Z,94.78
2018-03-23T02:40:37.679Z,94.83
2018-03-23T02:43:05.270Z,94.95
2018-03-23T02:45:32.885Z,94.98
2018-03-23T02:48:00.471Z,94.77
2018-03-23T02:50:28.058Z,94.84
2018-03-23T02:52:55.709Z,95.14
2018-03-23T02:55:23.291Z,95.58
2018-03-23T02:57:50.878Z,95.74
2018-03-23T03:00:18.499Z,95.83
2018-03-23T03:02:46.087Z,95.98
2018-03-23T03:05:13.679Z,96.13
2018-03-23T03:07:41.311Z,96.16
2018-03-23T03:10:08.892Z,96.21
2018-03-23T03:12:36.474Z,96.35
2018-03-23T03:15:04.141Z,96.72
2018-03-23T03:17:31.721Z,97.00
2018-03-23T03:19:59.285Z,96.37
2018-03-23T03:22:26.894Z,96.59
2018-03-23T03:24:54.476Z,96.87
2018-03-23T03:27:22.056Z,96.67
2018-03-23T03:29:49.678Z,96.51
2018-03-23T03:32:17.253Z,96.47
2018-03-23T03:34:44.831Z,96.40
2018-03-23T03:37:12.440Z,96.25
2018-03-23T03:39:40.014Z,96.12
2018-03-23T03:42:07.598Z,96.13
2018-03-23T03:44:35.218Z,95.90
2018-03-23T03:47:02.798Z,95.63
2018-03-23T03:49:30.427Z,95.46
2018-03-23T03:51:58.033Z,95.27
2018-03-23T03:54:25.610Z,95.03
2018-03-23T03:56:53.182Z,95.09
2018-03-23T03:59:20.799Z,95.02
2018-03-23T04:01:48.377Z,94.80
2018-03-23T04:04:15.966Z,94.65
2018-03-23T04:06:43.579Z,94.50
2018-03-23T04:09:11.152Z,94.47
2018-03-23T04:11:38.741Z,94.62
2018-03-23T04:14:06.353Z,93.93
2018-03-23T04:16:33.934Z,94.08
2018-03-23T04:19:01.519Z,94.05
2018-03-23T04:21:29.146Z,93.49
2018-03-23T04:23:56.729Z,93.11
2018-03-23T04:26:24.310Z,92.57
2018-03-23T04:28:51.929Z,92.87
2018-03-23T04:31:19.498Z,91.36
2018-03-23T04:33:47.090Z,90.99
2018-03-23T04:36:14.720Z,89.73
2018-03-23T04:38:42.319Z,88.64
2018-03-23T04:41:09.901Z,88.99
2018-03-23T04:43:37.526Z,88.91
2018-03-23T04:46:05.152Z,88.95
2018-03-23T04:48:32.735Z,90.16
2018-03-23T04:51:00.349Z,89.99
2018-03-23T04:53:27.952Z,89.02
2018-03-23T04:55:55.545Z,88.97
2018-03-23T04:58:23.174Z,88.34
2018-03-23T05:00:50.757Z,88.07
2018-03-23T05:03:18.359Z,88.27
2018-03-23T05:05:45.972Z,88.56
2018-03-23T05:08:13.569Z,89.14
2018-03-23T05:10:41.157Z,89.04
2018-03-23T05:13:08.769Z,89.71
2018-03-23T05:15:36.360Z,89.54
2018-03-23T05:18:03.937Z,89.89
2018-03-23T05:20:31.562Z,89.56
2018-03-23T05:22:59.124Z,89.14
2018-03-23T05:25:26.706Z,88.82
2018-03-23T05:27:54.326Z,88.34
2018-03-23T05:30:21.913Z,87.95
2018-03-23T05:32:49.502Z,87.62
2018-03-23T05:35:17.116Z,87.58
2018-03-23T05:37:44.699Z,85.72
2018-03-23T05:40:12.274Z,85.33
2018-03-23T05:42:39.890Z,85.18
2018-03-23T05:45:07.472Z,84.57
2018-03-23T05:47:35.049Z,83.72
2018-03-23T05:50:02.661Z,83.87
2018-03-23T05:52:30.370Z,83.44
2018-03-23T05:54:58.003Z,83.96
2018-03-23T05:57:25.634Z,84.25
2018-03-23T05:59:53.299Z,84.88
2018-03-23T06:02:20.867Z,85.49
2018-03-23T06:04:48.510Z,85.28
2018-03-23T06:07:16.098Z,84.39
2018-03-23T06:09:43.670Z,84.25
2018-03-23T06:12:11.285Z,84.55
2018-03-23T06:14:38.868Z,84.31
2018-03-23T06:17:06.550Z,84.85
2018-03-23T06:19:34.164Z,85.07
2018-03-23T06:22:01.742Z,85.22
2018-03-23T06:24:29.328Z,84.74
2018-03-23T06:26:56.923Z,85.01
2018-03-23T06:29:24.497Z,85.44
2018-03-23T06:31:52.073Z,85.13
2018-03-23T06:34:19.694Z,84.74
2018-03-23T06:36:47.274Z,85.32
2018-03-23T06:39:14.871Z,85.74
2018-03-23T06:41:42.490Z,85.93
2018-03-23T06:44:10.121Z,85.71
2018-03-23T06:46:38.622Z,85.13
2018-03-23T06:49:06.239Z,84.19
2018-03-23T06:51:33.825Z,84.54
2018-03-23T06:54:01.586Z,84.90
2018-03-23T06:56:29.203Z,84.84
2018-03-23T06:58:56.795Z,90.26
2018-03-23T07:01:24.385Z,91.90
2018-03-23T07:03:52.029Z,87.12
2018-03-23T07:06:19.613Z,88.86
2018-03-23T07:08:47.198Z,87.40
2018-03-23T07:11:14.837Z,87.19
2018-03-23T07:13:42.414Z,83.40
2018-03-23T07:16:10.100Z,81.50
2018-03-23T07:18:37.774Z,81.99
2018-03-23T07:21:06.286Z,79.08
2018-03-23T07:23:33.868Z,79.08
2018-03-23T07:26:01.500Z,79.58
2018-03-23T07:28:29.092Z,80.54
2018-03-23T07:30:56.694Z,80.75
2018-03-23T07:33:24.327Z,80.51
2018-03-23T07:35:51.923Z,80.94
2018-03-23T07:38:19.510Z,81.56
2018-03-23T07:40:47.141Z,82.20
2018-03-23T07:43:14.734Z,81.60
2018-03-23T07:45:42.383Z,80.51
2018-03-23T07:48:10.004Z,79.50
2018-03-23T07:50:37.597Z,78.70
2018-03-23T07:53:05.186Z,79.36
2018-03-23T07:55:32.810Z,79.35
2018-03-23T07:58:00.394Z,78.74
2018-03-23T08:00:27.987Z,78.40
2018-03-23T08:02:55.611Z,78.28
2018-03-23T08:05:23.198Z,77.58
2018-03-23T08:07:50.773Z,77.00
2018-03-23T08:10:18.402Z,75.86
2018-03-23T08:12:46.106Z,75.40
2018-03-23T08:15:13.710Z,75.07
2018-03-23T08:17:41.332Z,74.92
2018-03-23T08:20:08.949Z,76.37
2018-03-23T08:22:36.580Z,76.81
2018-03-23T08:25:04.209Z,77.13
2018-03-23T08:27:31.791Z,76.98
2018-03-23T08:29:59.384Z,76.94
2018-03-23T08:32:27.055Z,76.94
2018-03-23T08:34:54.650Z,77.00
2018-03-23T08:37:22.307Z,75.89
2018-03-23T08:39:49.965Z,76.95
2018-03-23T08:42:17.562Z,76.38
2018-03-23T08:44:45.246Z,75.42
2018-03-23T08:47:12.876Z,74.16
2018-03-23T08:49:40.470Z,73.18
2018-03-23T08:52:08.644Z,72.48
2018-03-23T08:54:36.266Z,72.12
2018-03-23T08:57:03.858Z,74.07
2018-03-23T08:59:31.492Z,74.62
2018-03-23T09:01:59.121Z,73.39
2018-03-23T09:04:26.696Z,73.02
2018-03-23T09:06:54.299Z,71.95
2018-03-23T09:09:21.984Z,71.99
2018-03-23T09:11:49.569Z,72.50
2018-03-23T09:14:17.149Z,71.21
2018-03-23T09:16:44.796Z,71.65
2018-03-23T09:19:12.390Z,69.52
2018-03-23T09:21:39.981Z,70.14
2018-03-23T09:24:07.614Z,69.90
2018-03-23T09:26:35.245Z,70.11
2018-03-23T09:29:02.832Z,70.94
2018-03-23T09:31:30.462Z,71.19
2018-03-23T09:33:58.076Z,72.50
2018-03-23T09:36:25.682Z,72.57
2018-03-23T09:38:53.349Z,71.26
2018-03-23T09:41:20.969Z,72.21
2018-03-23T09:43:48.610Z,70.93
2018-03-23T09:46:16.257Z,69.30
2018-03-23T09:48:43.903Z,70.83
2018-03-23T09:51:11.471Z,71.40
2018-03-23T09:53:39.083Z,68.97
2018-03-23T09:56:06.672Z,66.08
2018-03-23T09:58:34.256Z,67.24
2018-03-23T10:01:01.955Z,67.11
2018-03-23T10:03:29.558Z,66.08
2018-03-23T10:05:57.169Z,64.96
2018-03-23T10:08:24.796Z,65.08
2018-03-23T10:10:52.378Z,64.75
2018-03-23T10:13:19.986Z,65.43
2018-03-23T10:15:47.617Z,66.50
2018-03-23T10:18:15.201Z,65.64
2018-03-23T10:20:42.793Z,63.81
2018-03-23T10:23:10.405Z,63.28
2018-03-23T10:25:37.984Z,64.64
2018-03-23T10:28:05.555Z,64.68
2018-03-23T10:30:33.166Z,65.16
2018-03-23T10:33:00.760Z,67.37
2018-03-23T10:35:28.572Z,67.32
2018-03-23T10:37:56.380Z,67.40
2018-03-23T10:40:24.037Z,67.63
2018-03-23T10:42:51.620Z,67.16
2018-03-23T10:45:19.380Z,67.70
2018-03-23T10:47:46.962Z,67.67
2018-03-23T10:50:14.692Z,64.66
2018-03-23T10:52:42.535Z,64.91
2018-03-23T10:55:10.113Z,66.17
2018-03-23T10:57:37.693Z,64.66
2018-03-23T11:00:05.405Z,66.77
2018-03-23T11:02:43.029Z,66.09
2018-03-23T11:05:10.655Z,66.00
2018-03-23T11:07:38.233Z,63.29
2018-03-23T11:10:05.814Z,63.16
2018-03-23T11:12:33.432Z,62.08
2018-03-23T11:15:01.054Z,66.12
2018-03-23T11:17:28.634Z,62.74
2018-03-23T11:19:56.234Z,64.65
2018-03-23T11:22:23.818Z,63.93
2018-03-23T11:24:51.586Z,62.29
2018-03-23T11:27:19.199Z,63.14
2018-03-23T11:29:46.926Z,62.63
2018-03-23T11:32:14.571Z,61.81
2018-03-23T11:34:42.185Z,61.00
2018-03-23T11:37:09.760Z,59.58
2018-03-23T11:39:37.322Z,58.94
2018-03-23T11:42:04.931Z,57.91
2018-03-23T11:44:32.493Z,60.72
2018-03-23T11:47:00.086Z,60.42
2018-03-23T11:49:27.693Z,60.32
2018-03-23T11:51:55.297Z,58.28
2018-03-23T11:54:22.869Z,59.67
2018-03-23T11:56:50.614Z,58.26
2018-03-23T11:59:18.350Z,58.16
2018-03-23T12:01:45.923Z,57.81
2018-03-23T12:04:13.631Z,55.38
2018-03-23T12:06:41.206Z,56.31
2018-03-23T12:09:08.770Z,57.03
2018-03-23T12:11:36.383Z,56.76
2018-03-23T12:14:04.123Z,56.13
2018-03-23T12:16:31.701Z,56.06
2018-03-23T12:18:59.441Z,54.49
2018-03-23T12:21:27.054Z,55.75
2018-03-23T12:23:54.771Z,55.73
2018-03-23T12:26:22.368Z,55.68
2018-03-23T12:28:50.305Z,56.55
2018-03-23T12:31:17.954Z,56.52
2018-03-23T12:33:45.556Z,55.26
2018-03-23T12:36:13.142Z,54.44
2018-03-23T12:38:40.706Z,55.76
2018-03-23T12:41:08.315Z,56.44
2018-03-23T12:43:35.919Z,58.31
2018-03-23T12:46:03.516Z,59.04
2018-03-23T12:48:31.113Z,57.88
2018-03-23T12:50:58.750Z,61.14
2018-03-23T12:53:26.320Z,59.40
2018-03-23T12:55:53.924Z,58.37
2018-03-23T12:58:21.502Z,59.07
2018-03-23T13:00:49.294Z,63.00
2018-03-23T13:03:16.899Z,60.43
2018-03-23T13:05:44.458Z,59.79
2018-03-23T13:08:12.015Z,58.53
2018-03-23T13:10:39.681Z,59.94
2018-03-23T13:13:07.254Z,60.60
2018-03-23T13:15:34.831Z,59.91
2018-03-23T13:18:02.435Z,60.72
2018-03-23T13:20:30.000Z,60.35
2018-03-23T13:22:57.573Z,60.85
2018-03-23T13:25:25.192Z,62.17
2018-03-23T13:27:52.776Z,62.57
2018-03-23T13:30:20.367Z,62.88
2018-03-23T13:32:47.988Z,62.92
2018-03-23T13:35:15.565Z,66.59
2018-03-23T13:37:43.129Z,64.37
2018-03-23T13:40:10.736Z,64.98
2018-03-23T13:42:38.302Z,65.12
2018-03-23T13:45:05.878Z,66.87
2018-03-23T13:47:33.483Z,67.81
2018-03-23T13:50:01.070Z,67.94
2018-03-23T13:52:28.650Z,67.69
2018-03-23T13:54:56.255Z,66.65
2018-03-23T13:57:23.838Z,68.31
2018-03-23T13:59:57.050Z,68.64
2018-03-23T14:02:24.633Z,67.85
2018-03-23T14:04:52.254Z,68.28
2018-03-23T14:07:19.873Z,68.75
2018-03-23T14:09:47.454Z,69.61
2018-03-23T14:12:15.026Z,69.91
2018-03-23T14:14:43.602Z,68.11
2018-03-23T14:17:11.186Z,69.41
2018-03-23T14:19:38.778Z,69.37
2018-03-23T14:22:06.385Z,71.85
2018-03-23T14:24:33.969Z,71.05
2018-03-23T14:27:01.555Z,71.48
2018-03-23T14:29:29.174Z,71.36
2018-03-23T14:31:56.765Z,71.43
2018-03-23T14:34:24.353Z,71.45
2018-03-23T14:36:51.970Z,71.14
2018-03-23T14:39:19.564Z,70.40
2018-03-23T14:41:47.154Z,70.54
2018-03-23T14:44:14.810Z,71.35
2018-03-23T14:46:42.425Z,71.33
2018-03-23T14:49:10.000Z,72.61
2018-03-23T14:51:37.666Z,72.46
2018-03-23T14:54:05.258Z,72.00
2018-03-23T14:56:32.842Z,72.79
2018-03-23T14:59:05.874Z,72.43
2018-03-23T15:01:33.450Z,73.65
2018-03-23T15:04:01.035Z,74.30
2018-03-23T15:06:28.669Z,74.60
2018-03-23T15:08:56.241Z,74.69
2018-03-23T15:11:23.811Z,75.32
2018-03-23T15:13:51.462Z,75.32
2018-03-23T15:16:19.042Z,75.00
2018-03-23T15:18:46.635Z,75.50
2018-03-23T15:21:14.263Z,77.08
2018-03-23T15:23:41.910Z,77.64
2018-03-23T15:26:09.494Z,78.61
2018-03-23T15:28:37.174Z,78.07
2018-03-23T15:31:04.775Z,78.72
2018-03-23T15:33:32.353Z,79.56
2018-03-23T15:35:59.974Z,79.61
2018-03-23T15:38:27.571Z,80.20
2018-03-23T15:40:55.190Z,79.79
2018-03-23T15:43:22.815Z,79.60
2018-03-23T15:45:50.398Z,79.62
2018-03-23T15:48:17.999Z,80.80
2018-03-23T15:50:45.600Z,81.02
2018-03-23T15:53:13.190Z,82.11
2018-03-23T15:55:40.782Z,82.98
2018-03-23T15:58:08.540Z,83.36
2018-03-23T16:00:36.135Z,84.11
2018-03-23T16:03:03.759Z,83.01
2018-03-23T16:05:31.760Z,83.22
2018-03-23T16:07:59.365Z,84.25
2018-03-23T16:10:26.958Z,83.72
2018-03-23T16:12:54.588Z,83.92
2018-03-23T16:15:22.183Z,84.32
2018-03-23T16:17:49.773Z,84.47
2018-03-23T16:20:17.406Z,84.81
2018-03-23T16:22:44.994Z,85.32
2018-03-23T16:25:12.573Z,85.83
2018-03-23T16:27:40.235Z,85.40
2018-03-23T16:30:07.822Z,85.57
2018-03-23T16:32:35.403Z,85.02
2018-03-23T16:35:03.036Z,86.51
2018-03-23T16:37:30.655Z,87.24
2018-03-23T16:39:58.317Z,87.18
2018-03-23T16:42:25.928Z,87.12
2018-03-23T16:44:53.499Z,87.15
2018-03-23T16:47:21.090Z,87.03
2018-03-23T16:49:48.705Z,87.10
2018-03-23T16:52:16.298Z,86.90
2018-03-23T16:54:43.925Z,87.62
2018-03-23T16:57:11.642Z,87.34
2018-03-23T16:59:39.224Z,86.70
2018-03-23T17:02:06.809Z,86.98
2018-03-23T17:04:34.447Z,87.55
2018-03-23T17:07:02.035Z,86.53
2018-03-23T17:09:29.639Z,86.79
2018-03-23T17:11:57.266Z,87.40
2018-03-23T17:14:24.896Z,87.34
2018-03-23T17:16:52.509Z,87.95
2018-03-23T17:19:20.129Z,88.24
2018-03-23T17:21:47.860Z,88.07
2018-03-23T17:24:15.506Z,88.18
2018-03-23T17:26:43.123Z,87.84
2018-03-23T17:29:11.033Z,87.92
2018-03-23T17:31:38.694Z,87.73
2018-03-23T17:34:06.373Z,88.09
2018-03-23T17:36:34.022Z,87.72
2018-03-23T17:39:01.594Z,88.21
2018-03-23T17:41:29.360Z,88.50
2018-03-23T17:43:56.947Z,88.57
2018-03-23T17:46:24.670Z,88.52
2018-03-23T17:48:52.351Z,88.45
2018-03-23T17:51:19.906Z,89.32
2018-03-23T17:53:47.647Z,89.44
2018-03-23T17:56:15.272Z,89.79
2018-03-23T17:58:42.880Z,89.53
2018-03-23T18:01:10.640Z,89.53
2018-03-23T18:03:38.233Z,89.44
2018-03-23T18:06:05.803Z,89.88
2018-03-23T18:08:33.430Z,89.60
2018-03-23T18:11:01.096Z,89.83
2018-03-23T18:13:28.765Z,89.39
2018-03-23T18:15:56.342Z,89.74
2018-03-23T18:18:24.086Z,90.12
2018-03-23T18:20:51.662Z,90.26
2018-03-23T18:23:19.237Z,89.95
2018-03-23T18:25:46.866Z,89.23
2018-03-23T18:28:14.547Z,89.39
2018-03-23T18:30:42.190Z,89.08
2018-03-23T18:33:09.831Z,89.29
2018-03-23T18:35:37.520Z,89.21
2018-03-23T18:38:05.167Z,89.33
2018-03-23T18:40:32.767Z,88.98
2018-03-23T18:43:00.339Z,89.93
2018-03-23T18:45:27.910Z,89.89
2018-03-23T18:47:55.606Z,89.49
2018-03-23T18:50:23.179Z,89.81
2018-03-23T18:52:50.934Z,90.01
2018-03-23T18:55:18.603Z,91.00
2018-03-23T18:57:46.277Z,90.99
2018-03-23T19:00:13.886Z,91.24
2018-03-23T19:02:41.592Z,91.26
2018-03-23T19:05:09.251Z,90.89
2018-03-23T19:07:36.910Z,90.47
2018-03-23T19:10:04.557Z,90.15
2018-03-23T19:12:32.151Z,90.24
2018-03-23T19:14:59.907Z,90.53
2018-03-23T19:17:27.525Z,90.65
2018-03-23T19:19:55.109Z,90.66
2018-03-23T19:22:22.672Z,90.91
2018-03-23T19:24:50.330Z,91.32
2018-03-23T19:27:17.892Z,91.58
2018-03-23T19:29:45.692Z,90.89
2018-03-23T19:32:13.302Z,90.58
2018-03-23T19:34:40.869Z,90.92
2018-03-23T19:37:08.439Z,91.41
2018-03-23T19:39:36.114Z,91.29
2018-03-23T19:42:03.677Z,91.37
2018-03-23T19:44:31.264Z,91.36
2018-03-23T19:46:58.866Z,91.58
2018-03-23T19:49:26.435Z,91.30
2018-03-23T19:51:54.039Z,91.61
2018-03-23T19:54:21.694Z,91.47
2018-03-23T19:56:49.324Z,91.15
2018-03-23T19:59:17.052Z,90.93
2018-03-23T20:01:44.683Z,90.94
2018-03-23T20:04:12.273Z,90.59
2018-03-23T20:06:39.848Z,90.02
2018-03-23T20:09:07.462Z,90.21
2018-03-23T20:11:35.045Z,90.33
2018-03-23T20:14:08.231Z,90.63
2018-03-23T20:16:35.813Z,90.52
2018-03-23T20:19:03.397Z,90.51
2018-03-23T20:21:30.995Z,90.00
2018-03-23T20:27:13.400Z,91.00
2018-03-23T20:29:40.966Z,90.79
2018-03-23T20:32:14.228Z,90.64
2018-03-23T20:34:41.822Z,90.78
2018-03-23T20:37:09.383Z,90.62
2018-03-23T20:39:36.972Z,90.43
2018-03-23T20:42:04.541Z,90.30
2018-03-23T20:44:32.138Z,90.27
2018-03-23T20:46:59.755Z,90.18
2018-03-23T20:49:27.322Z,90.30
2018-03-23T20:51:54.894Z,90.54
2018-03-23T20:54:22.520Z,90.79
2018-03-23T20:56:50.123Z,91.02
2018-03-23T20:59:17.762Z,90.76
2018-03-23T21:01:45.357Z,90.59
2018-03-23T21:04:12.934Z,89.69
2018-03-23T21:06:40.526Z,89.51
2018-03-23T21:09:08.138Z,90.17
2018-03-23T21:11:35.698Z,90.16
2018-03-23T21:14:03.306Z,89.57
2018-03-23T21:16:30.923Z,88.66
2018-03-23T21:18:58.528Z,87.87
2018-03-23T21:21:26.222Z,86.90
2018-03-23T21:23:53.830Z,87.11
2018-03-23T21:26:21.411Z,87.12
2018-03-23T21:28:48.990Z,87.19
2018-03-23T21:31:16.605Z,87.28
2018-03-23T21:33:44.200Z,87.36
2018-03-23T21:36:11.772Z,87.93
2018-03-23T21:38:39.422Z,88.14
2018-03-23T21:41:06.997Z,88.20
2018-03-23T21:43:34.569Z,88.46
2018-03-23T21:46:02.176Z,88.81
2018-03-23T21:48:29.756Z,89.31
2018-03-23T21:50:57.321Z,89.65
2018-03-23T21:53:24.931Z,90.31
2018-03-23T21:55:52.505Z,90.29
2018-03-23T21:58:20.087Z,90.52
2018-03-23T22:00:47.684Z,90.93
2018-03-23T22:03:15.234Z,91.08
2018-03-23T22:05:42.818Z,91.35
2018-03-23T22:08:10.418Z,91.11
2018-03-23T22:10:38.031Z,91.03
2018-03-23T22:13:05.583Z,90.82
2018-03-23T22:15:33.187Z,90.50
2018-03-23T22:18:00.746Z,90.23
2018-03-23T22:20:28.316Z,90.83
2018-03-23T22:22:55.905Z,90.75
2018-03-23T22:25:23.471Z,90.99
2018-03-23T22:27:51.044Z,91.29
2018-03-23T22:30:18.649Z,91.18
2018-03-23T22:32:46.226Z,90.87
2018-03-23T22:35:13.796Z,91.20
2018-03-23T22:37:41.411Z,91.42
2018-03-23T22:40:09.002Z,91.62
2018-03-23T22:42:36.585Z,91.70
2018-03-23T22:45:04.229Z,91.23
2018-03-23T22:47:31.816Z,90.84
2018-03-23T22:49:59.390Z,90.42
2018-03-23T22:52:27.002Z,90.46
2018-03-23T22:54:54.867Z,89.98
2018-03-23T22:57:22.541Z,89.83
2018-03-23T22:59:50.170Z,89.83
2018-03-23T23:02:17.759Z,89.86
2018-03-23T23:04:45.342Z,89.74
2018-03-23T23:07:12.949Z,89.23
2018-03-23T23:09:40.548Z,89.85
2018-03-23T23:12:08.518Z,89.96
2018-03-23T23:14:36.144Z,89.67
2018-03-23T23:17:03.726Z,90.03
2018-03-23T23:19:31.359Z,90.21
2018-03-23T23:21:59.002Z,90.27
2018-03-23T23:24:26.587Z,90.13
2018-03-23T23:26:54.169Z,90.51
2018-03-23T23:29:21.838Z,90.67
2018-03-23T23:31:49.417Z,90.93
2018-03-23T23:34:17.005Z,90.87
2018-03-23T23:36:44.623Z,90.91
2018-03-23T23:39:12.215Z,90.90
2018-03-23T23:41:39.805Z,90.53
2018-03-23T23:44:07.428Z,91.12
2018-03-23T23:46:35.021Z,91.39
2018-03-23T23:49:02.611Z,91.19
2018-03-23T23:51:30.242Z,90.20
2018-03-23T23:53:57.829Z,90.10
2018-03-23T23:56:25.407Z,90.48
2018-03-23T23:58:53.031Z,90.64
